createdAt,value
2024-02-28T00:01:57.625Z,100433.16
2024-02-28T00:07:00.602Z,100438.28
2024-02-28T00:12:03.669Z,100434.09
2024-02-28T00:17:08.139Z,100430.88
2024-02-28T00:22:11.384Z,100442.16
2024-02-28T00:27:14.141Z,100428.50
2024-02-28T00:32:18.270Z,100431.50
2024-02-28T00:37:21.062Z,100436.59
2024-02-28T00:42:24.091Z,100440.16
2024-02-28T00:47:28.310Z,100445.38
2024-02-28T00:52:32.930Z,100449.19
2024-02-28T00:57:36.489Z,100435.56
2024-02-28T01:02:42.436Z,100450.28
2024-02-28T01:07:45.334Z,100448.16
2024-02-28T01:12:48.113Z,100439.72
2024-02-28T01:17:52.226Z,100432.63
2024-02-28T01:22:54.982Z,100446.84
2024-02-28T01:27:59.029Z,100441.38
2024-02-28T01:33:03.425Z,100446.84
2024-02-28T01:38:06.394Z,100441.16
2024-02-28T01:43:09.490Z,100447.22
2024-02-28T01:48:14.302Z,100440.34
2024-02-28T01:53:19.331Z,100438.34
2024-02-28T01:58:23.590Z,100434.06
2024-02-28T02:03:27.707Z,100437.75
2024-02-28T02:08:30.526Z,100443.19
2024-02-28T02:13:33.244Z,100440.69
2024-02-28T02:18:37.559Z,100450.56
2024-02-28T02:23:42.591Z,100441.41
2024-02-28T02:28:45.423Z,100443.19
2024-02-28T02:33:48.233Z,100441.41
2024-02-28T02:38:52.411Z,100445.19
2024-02-28T02:43:55.158Z,100439.00
2024-02-28T02:48:57.954Z,100435.13
2024-02-28T02:54:02.177Z,100447.81
2024-02-28T02:59:04.951Z,100448.75
2024-02-28T03:04:07.668Z,100450.56
2024-02-28T03:09:11.776Z,100452.22
2024-02-28T03:14:14.736Z,100457.66
2024-02-28T03:19:17.487Z,100465.47
2024-02-28T03:24:21.676Z,100472.38
2024-02-28T03:29:24.405Z,100483.50
2024-02-28T03:34:27.127Z,100491.53
2024-02-28T03:39:31.296Z,100495.34
2024-02-28T03:44:34.081Z,100492.38
2024-02-28T03:49:36.911Z,100502.09
2024-02-28T03:54:44.313Z,100501.81
2024-02-28T03:59:47.023Z,100504.25
2024-02-28T04:04:49.814Z,100522.50
2024-02-28T04:09:53.954Z,100516.94
2024-02-28T04:14:56.745Z,100527.13
2024-02-28T04:19:59.845Z,100534.09
2024-02-28T04:25:04.077Z,100542.19
2024-02-28T04:30:08.922Z,100536.84
2024-02-28T04:35:12.317Z,100552.75
2024-02-28T04:40:16.775Z,100552.63
2024-02-28T04:45:19.568Z,100562.69
2024-02-28T04:50:22.374Z,100574.78
2024-02-28T04:55:26.531Z,100573.69
2024-02-28T05:00:29.356Z,100569.56
2024-02-28T05:05:32.068Z,100568.31
2024-02-28T05:10:36.297Z,100570.31
2024-02-28T05:15:39.107Z,100566.19
2024-02-28T05:20:41.988Z,100576.97
2024-02-28T05:25:46.085Z,100587.44
2024-02-28T05:30:50.972Z,100585.41
2024-02-28T05:35:53.991Z,100601.38
2024-02-28T05:40:58.064Z,100609.19
2024-02-28T05:46:00.836Z,100619.13
2024-02-28T05:51:04.170Z,100630.56
2024-02-28T05:56:14.221Z,100631.97
2024-02-28T06:01:18.143Z,100632.06
2024-02-28T06:06:20.989Z,100645.38
2024-02-28T06:11:25.279Z,100642.38
2024-02-28T06:16:28.049Z,100648.84
2024-02-28T06:21:31.421Z,100653.75
2024-02-28T06:26:36.020Z,100661.03
2024-02-28T06:31:38.762Z,100666.66
2024-02-28T06:36:41.560Z,100669.66
2024-02-28T06:41:45.806Z,100674.84
2024-02-28T06:46:48.552Z,100684.41
2024-02-28T06:51:51.305Z,100683.41
2024-02-28T06:56:55.621Z,100693.56
2024-02-28T07:01:58.422Z,100707.41
2024-02-28T07:07:01.314Z,100716.41
2024-02-28T07:12:06.298Z,100710.50
2024-02-28T07:17:09.192Z,100713.31
2024-02-28T07:22:12.058Z,100713.72
2024-02-28T07:27:16.860Z,100701.63
2024-02-28T07:32:19.661Z,100720.44
2024-02-28T07:37:22.407Z,100727.34
2024-02-28T07:42:27.090Z,100729.53
2024-02-28T07:47:29.959Z,100731.47
2024-02-28T07:52:36.038Z,100718.75
2024-02-28T07:57:40.234Z,100725.38
2024-02-28T08:02:43.108Z,100724.66
2024-02-28T08:07:46.275Z,100722.50
2024-02-28T08:12:50.409Z,100729.31
2024-02-28T08:17:53.278Z,100727.44
2024-02-28T08:22:58.260Z,100725.56
2024-02-28T08:28:02.574Z,100725.59
2024-02-28T08:33:05.951Z,100723.88
2024-02-28T08:38:08.725Z,100722.22
2024-02-28T08:43:12.897Z,100733.66
2024-02-28T08:48:15.665Z,100732.00
2024-02-28T08:53:18.452Z,100725.34
2024-02-28T08:58:22.583Z,100739.44
2024-02-28T09:03:25.374Z,100751.84
2024-02-28T09:08:28.215Z,100760.69
2024-02-28T09:13:32.326Z,100764.41
2024-02-28T09:18:35.272Z,100766.59
2024-02-28T09:23:38.096Z,100757.13
2024-02-28T09:28:42.363Z,100749.16
2024-02-28T09:33:47.591Z,100758.16
2024-02-28T09:38:50.505Z,100758.66
2024-02-28T09:43:55.693Z,100749.63
2024-02-28T09:48:58.621Z,100758.09
2024-02-28T09:54:03.499Z,100760.09
2024-02-28T09:59:09.165Z,100759.13
2024-02-28T10:04:13.840Z,100769.19
2024-02-28T10:09:16.924Z,100756.94
2024-02-28T10:14:21.305Z,100765.75
2024-02-28T10:19:24.074Z,100771.81
2024-02-28T10:24:27.041Z,100766.75
2024-02-28T10:29:33.797Z,100771.44
2024-02-28T10:34:37.029Z,100786.06
2024-02-28T10:39:40.306Z,100795.44
2024-02-28T10:44:44.974Z,100793.78
2024-02-28T10:49:47.763Z,100792.97
2024-02-28T10:54:56.883Z,100789.16
2024-02-28T11:00:01.484Z,100784.31
2024-02-28T11:05:04.431Z,100795.13
2024-02-28T11:10:08.307Z,100800.59
2024-02-28T11:15:19.279Z,100804.38
2024-02-28T11:20:23.679Z,100797.44
2024-02-28T11:25:26.564Z,100794.91
2024-02-28T11:30:30.936Z,100800.56
2024-02-28T11:35:34.099Z,100799.66
2024-02-28T11:40:36.990Z,100793.50
2024-02-28T11:45:44.616Z,100800.34
2024-02-28T11:50:47.432Z,100804.28
2024-02-28T11:55:50.542Z,100796.75
2024-02-28T12:00:55.490Z,100800.78
2024-02-28T12:05:58.431Z,100802.00
2024-02-28T12:11:08.818Z,100796.00
2024-02-28T12:16:13.160Z,100802.06
2024-02-28T12:21:16.020Z,100792.72
2024-02-28T12:26:19.551Z,100787.84
2024-02-28T12:31:23.762Z,100779.91
2024-02-28T12:36:27.804Z,100784.81
2024-02-28T12:41:31.269Z,100779.13
2024-02-28T12:46:35.652Z,100764.56
2024-02-28T12:51:40.193Z,100780.25
2024-02-28T12:56:45.048Z,100767.22
2024-02-28T13:01:49.758Z,100776.47
2024-02-28T13:06:52.901Z,100786.00
2024-02-28T13:11:55.864Z,100770.03
2024-02-28T13:17:02.673Z,100778.03
2024-02-28T13:22:07.416Z,100779.97
2024-02-28T13:27:10.517Z,100769.47
2024-02-28T13:32:14.863Z,100765.50
2024-02-28T13:37:17.883Z,100758.97
2024-02-28T13:42:22.071Z,100760.06
2024-02-28T13:47:26.363Z,100754.91
2024-02-28T13:52:29.213Z,100757.63
2024-02-28T13:57:32.058Z,100750.28
2024-02-28T14:02:36.414Z,100736.41
2024-02-28T14:07:40.682Z,100741.94
2024-02-28T14:12:43.706Z,100735.50
2024-02-28T14:17:47.952Z,100734.25
2024-02-28T14:22:50.719Z,100730.94
2024-02-28T14:27:53.592Z,100734.66
2024-02-28T14:32:58.873Z,100743.81
2024-02-28T14:38:01.734Z,100743.16
2024-02-28T14:43:04.663Z,100747.78
2024-02-28T14:48:09.663Z,100732.41
2024-02-28T14:53:12.609Z,100736.56
2024-02-28T14:58:15.434Z,100735.28
2024-02-28T15:03:19.921Z,100739.06
2024-02-28T15:08:22.723Z,100739.84
2024-02-28T15:13:25.565Z,100742.31
2024-02-28T15:18:29.811Z,100741.53
2024-02-28T15:23:33.018Z,100740.09
2024-02-28T15:28:35.911Z,100742.84
2024-02-28T15:33:40.125Z,100733.88
2024-02-28T15:38:42.950Z,100736.69
2024-02-28T15:43:45.720Z,100734.31
2024-02-28T15:48:50.129Z,100737.41
2024-02-28T15:53:52.906Z,100740.94
2024-02-28T15:58:55.862Z,100741.84
2024-02-28T16:04:00.465Z,100747.72
2024-02-28T16:09:05.576Z,100740.28
2024-02-28T16:14:08.373Z,100731.91
2024-02-28T16:19:18.641Z,100731.44
2024-02-28T16:24:25.853Z,100731.94
2024-02-28T16:29:28.659Z,100737.75
2024-02-28T16:34:32.895Z,100744.50
2024-02-28T16:39:35.765Z,100747.56
2024-02-28T16:44:39.021Z,100756.47
2024-02-28T16:49:43.347Z,100748.94
2024-02-28T16:54:47.711Z,100754.06
2024-02-28T16:59:51.319Z,100758.72
2024-02-28T17:04:55.561Z,100764.53
2024-02-28T17:09:59.101Z,100762.63
2024-02-28T17:15:02.115Z,100773.78
2024-02-28T17:20:08.448Z,100775.97
2024-02-28T17:25:12.265Z,100773.59
2024-02-28T17:30:15.643Z,100783.59
2024-02-28T17:35:20.404Z,100792.75
2024-02-28T17:40:23.160Z,100787.28
2024-02-28T17:45:25.999Z,100773.97
2024-02-28T17:56:26.777Z,100781.25
2024-02-28T18:01:30.126Z,100777.44
2024-02-28T18:06:33.110Z,100792.81
2024-02-28T18:11:37.919Z,100787.25
2024-02-28T18:16:40.881Z,100788.31
2024-02-28T18:21:57.294Z,100790.44
2024-02-28T18:27:21.231Z,100793.00
2024-02-28T18:32:31.844Z,100793.56
2024-02-28T18:37:34.817Z,100792.97
2024-02-28T18:42:39.506Z,100792.28
2024-02-28T18:47:42.578Z,100803.47
2024-02-28T18:52:45.572Z,100792.19
2024-02-28T18:57:50.024Z,100793.03
2024-02-28T19:02:54.716Z,100792.09
2024-02-28T19:07:57.513Z,100797.66
2024-02-28T19:13:01.969Z,100795.84
2024-02-28T19:18:05.115Z,100800.16
2024-02-28T19:23:07.942Z,100800.88
2024-02-28T19:28:12.238Z,100797.75
2024-02-28T19:33:15.316Z,100796.59
2024-02-28T19:38:18.279Z,100787.13
2024-02-28T19:43:22.540Z,100785.44
2024-02-28T19:48:25.413Z,100789.72
2024-02-28T19:53:29.914Z,100784.41
2024-02-28T19:58:35.249Z,100790.22
2024-02-28T20:03:37.985Z,100794.13
2024-02-28T20:08:41.031Z,100799.06
2024-02-28T20:13:49.138Z,100796.56
2024-02-28T20:18:52.897Z,100796.03
2024-02-28T20:23:56.503Z,100794.44
2024-02-28T20:29:01.122Z,100789.34
2024-02-28T20:34:04.010Z,100792.03
2024-02-28T20:39:10.250Z,100783.72
2024-02-28T20:44:14.501Z,100792.00
2024-02-28T20:49:18.084Z,100784.69
2024-02-28T20:54:20.988Z,100782.09
2024-02-28T20:59:27.474Z,100782.00
2024-02-28T21:04:30.532Z,100776.53
2024-02-28T21:09:33.799Z,100785.25
2024-02-28T21:14:37.922Z,100780.91
2024-02-28T21:19:41.106Z,100775.34
2024-02-28T21:24:43.950Z,100780.97
2024-02-28T21:29:48.238Z,100779.66
2024-02-28T21:34:51.334Z,100768.97
2024-02-28T21:39:54.482Z,100774.91
2024-02-28T21:44:58.948Z,100777.69
2024-02-28T21:50:01.879Z,100779.91
2024-02-28T21:55:05.992Z,100778.06
2024-02-28T22:00:13.432Z,100771.56
2024-02-28T22:05:16.421Z,100756.94
2024-02-28T22:10:19.444Z,100754.28
2024-02-28T22:15:25.246Z,100761.22
2024-02-28T22:20:28.062Z,100756.50
2024-02-28T22:25:30.831Z,100758.28
2024-02-28T22:30:34.954Z,100750.09
2024-02-28T22:35:37.904Z,100747.13
2024-02-28T22:40:40.726Z,100750.72
2024-02-28T22:45:46.776Z,100744.34
2024-02-28T22:50:49.652Z,100747.00
2024-02-28T22:55:53.046Z,100750.22
2024-02-28T23:00:57.307Z,100749.59
2024-02-28T23:06:01.425Z,100741.06
2024-02-28T23:11:04.489Z,100725.03
2024-02-28T23:16:09.028Z,100735.09
2024-02-28T23:21:11.870Z,100724.25
2024-02-28T23:26:14.634Z,100729.91
2024-02-28T23:31:22.414Z,100718.41
2024-02-28T23:36:25.214Z,100726.03
2024-02-28T23:41:29.794Z,100721.94
2024-02-28T23:46:34.600Z,100718.34
2024-02-28T23:51:37.402Z,100715.63
2024-02-28T23:56:40.163Z,100712.22
